KPDX/PDX METAR and TAF weather

Enter ICAO airport designator
Station Type Date Time Source
KPDX METAR 2020/04/04 19:53 UTC NOAA

KPDX 041953Z 02003KT 10SM SCT020 BKN095 BKN250 12/01 A2969 RMK AO2 SLP052 T01220006


Station Type Date Time Source
KPDX Decoded METAR 2020/04/04 19:53 UTC NOAA

PORTLAND INTERNATIONAL AIRPORT, OR, United States (KPDX) 45-35N 122-36W 7M
Apr 04, 2020 - 03:53 PM EDT / 2020.04.04 1953 UTC
Wind: from the NNE (020 degrees) at 3 MPH (3 KT):0
Visibility: 10 mile(s):0
Sky conditions: mostly cloudy
Temperature: 54.0 F (12.2 C)
Dew Point: 33.1 F (0.6 C)
Relative Humidity: 44%
Pressure (altimeter): 29.69 in. Hg (1005 hPa)
ob: KPDX 041953Z 02003KT 10SM SCT020 BKN095 BKN250 12/01 A2969 RMK AO2 SLP052 T01220006
cycle: 20

Station Type Date Time Source
KPDX TAF 2020/04/04 18:24 UTC NOAA

TAF KPDX 041720Z 0418/0518 27004KT P6SM FEW012 SCT070 BKN250
TEMPO 0420/0424 -RA
FM050000 10007KT P6SM -RA BKN035 OVC050
FM050300 13005KT P6SM -RA BKN025 OVC040
FM051400 02003KT P6SM OVC050

Example: see airport list